createdAt,value
2022-08-22T00:04:17.893Z,2.50
2022-08-22T00:14:45.490Z,2.50
2022-08-22T00:25:12.456Z,2.70
2022-08-22T00:35:45.569Z,2.90
2022-08-22T00:46:10.602Z,2.70
2022-08-22T00:56:36.403Z,3.10
2022-08-22T01:07:01.467Z,3.00
2022-08-22T01:17:16.736Z,3.30
2022-08-22T01:27:51.999Z,3.00
2022-08-22T01:38:27.041Z,3.15
2022-08-22T01:48:50.354Z,3.10
2022-08-22T01:59:10.932Z,3.10
2022-08-22T02:09:27.473Z,2.90
2022-08-22T02:19:42.244Z,3.00
2022-08-22T02:29:55.149Z,2.80
2022-08-22T02:40:14.101Z,2.80
2022-08-22T02:50:27.826Z,3.80
2022-08-22T03:01:00.372Z,3.60
2022-08-22T03:11:24.874Z,4.40
2022-08-22T03:21:44.569Z,4.10
2022-08-22T03:32:08.892Z,4.70
2022-08-22T03:42:53.162Z,4.50
2022-08-22T03:53:15.214Z,4.10
2022-08-22T04:03:54.063Z,4.40
2022-08-22T04:14:29.453Z,3.60
2022-08-22T04:24:44.192Z,4.10
2022-08-22T04:35:11.223Z,4.20
2022-08-22T04:45:38.087Z,4.00
2022-08-22T04:55:53.321Z,4.00
2022-08-22T05:06:00.863Z,3.50
2022-08-22T05:16:13.945Z,4.00
2022-08-22T05:26:20.752Z,4.70
2022-08-22T05:36:36.401Z,10.20
2022-08-22T05:46:45.294Z,12.60
2022-08-22T05:56:55.998Z,12.10
2022-08-22T06:07:19.676Z,8.60
2022-08-22T06:17:43.537Z,7.20
2022-08-22T06:27:50.592Z,10.50
2022-08-22T06:38:00.129Z,8.80
2022-08-22T06:48:06.838Z,5.40
2022-08-22T06:58:15.568Z,6.80
2022-08-22T07:08:23.469Z,9.30
2022-08-22T07:18:31.043Z,7.90
2022-08-22T07:28:51.241Z,7.50
2022-08-22T07:39:26.556Z,9.65
2022-08-22T07:49:40.945Z,7.90
2022-08-22T07:59:57.877Z,9.30
2022-08-22T08:10:12.792Z,8.60
2022-08-22T08:20:23.070Z,8.60
2022-08-22T08:30:44.594Z,8.10
2022-08-22T08:41:02.826Z,8.10
2022-08-22T08:51:18.085Z,6.50
2022-08-22T09:01:59.510Z,10.00
2022-08-22T09:12:31.412Z,5.80
2022-08-22T09:23:05.234Z,6.40
2022-08-22T09:33:21.575Z,6.30
2022-08-22T09:43:48.981Z,6.20
2022-08-22T09:54:32.691Z,6.10
2022-08-22T10:04:58.380Z,6.80
2022-08-22T10:15:06.963Z,6.00
2022-08-22T10:25:34.768Z,6.70
2022-08-22T10:35:51.940Z,5.80
2022-08-22T10:46:06.749Z,5.90
2022-08-22T10:56:38.058Z,6.90
2022-08-22T11:07:18.971Z,7.00
2022-08-22T11:18:15.936Z,6.80
2022-08-22T11:28:34.160Z,10.50
2022-08-22T11:38:59.073Z,7.50
2022-08-22T11:49:31.674Z,7.40
2022-08-22T12:00:00.412Z,7.70
2022-08-22T12:10:13.717Z,8.55
2022-08-22T12:20:38.500Z,7.20
2022-08-22T12:30:47.741Z,6.00
2022-08-22T12:41:34.668Z,6.60
2022-08-22T12:52:12.783Z,7.90
2022-08-22T13:02:25.181Z,8.30
2022-08-22T13:12:40.089Z,6.20
2022-08-22T13:22:51.238Z,5.90
2022-08-22T13:33:12.613Z,6.80
2022-08-22T13:43:56.304Z,6.90
2022-08-22T13:54:12.172Z,7.60
2022-08-22T14:04:28.762Z,7.90
2022-08-22T14:14:47.231Z,8.10
2022-08-22T14:24:59.392Z,8.70
2022-08-22T14:35:23.095Z,15.00
2022-08-22T14:45:33.861Z,8.40
2022-08-22T14:55:44.037Z,8.50
2022-08-22T15:06:03.289Z,7.90
2022-08-22T15:16:23.919Z,8.40
2022-08-22T15:26:34.735Z,8.00
2022-08-22T15:37:09.883Z,7.90
2022-08-22T15:47:31.624Z,8.00
2022-08-22T15:57:44.435Z,8.30
2022-08-22T16:07:58.096Z,12.80
2022-08-22T16:18:04.573Z,9.90
2022-08-22T16:28:56.931Z,14.10
2022-08-22T16:38:58.812Z,9.90
2022-08-22T16:49:05.451Z,8.50
2022-08-22T16:59:23.783Z,8.00
2022-08-22T17:09:45.504Z,8.40
2022-08-22T17:20:10.543Z,8.20
2022-08-22T17:30:38.002Z,8.30
2022-08-22T17:41:06.318Z,8.00
2022-08-22T17:51:17.619Z,8.65
2022-08-22T18:01:45.688Z,8.60
2022-08-22T18:12:31.120Z,8.70
2022-08-22T18:22:53.460Z,7.90
2022-08-22T18:33:05.189Z,8.60
2022-08-22T18:43:25.340Z,8.20
2022-08-22T18:53:40.459Z,8.30
2022-08-22T19:03:56.237Z,8.40
2022-08-22T19:14:19.068Z,8.80
2022-08-22T19:24:28.324Z,8.70
2022-08-22T19:34:41.607Z,8.90
2022-08-22T19:45:04.307Z,8.20
2022-08-22T19:55:23.164Z,8.30
2022-08-22T20:05:56.937Z,8.10
2022-08-22T20:16:22.532Z,8.60
2022-08-22T20:26:29.041Z,8.50
2022-08-22T20:36:35.435Z,8.30
2022-08-22T20:46:47.866Z,8.00
2022-08-22T20:57:03.162Z,8.00
2022-08-22T21:07:09.492Z,7.90
2022-08-22T21:17:34.333Z,9.80
2022-08-22T21:27:46.837Z,8.30
2022-08-22T21:37:53.372Z,8.10
2022-08-22T21:48:00.889Z,8.20
2022-08-22T21:58:07.346Z,7.30
2022-08-22T22:08:13.743Z,7.00
2022-08-22T22:18:24.075Z,7.20
2022-08-22T22:28:41.608Z,6.70
2022-08-22T22:38:48.584Z,6.00
2022-08-22T22:48:59.070Z,6.40
2022-08-22T22:59:12.807Z,6.30
2022-08-22T23:09:20.114Z,6.00
2022-08-22T23:19:27.770Z,6.00
2022-08-22T23:29:34.377Z,6.10
2022-08-22T23:39:40.751Z,5.60
2022-08-22T23:49:47.385Z,5.70
2022-08-22T23:59:57.936Z,5.70
